createdAt,value
2022-08-03T00:00:17.715Z,76.87
2022-08-03T00:01:20.373Z,76.88
2022-08-03T00:02:23.581Z,76.89
2022-08-03T00:03:58.705Z,76.95
2022-08-03T00:05:01.380Z,76.96
2022-08-03T00:06:10.677Z,77.08
2022-08-03T00:07:50.789Z,77.28
2022-08-03T00:08:59.913Z,77.45
2022-08-03T00:10:02.629Z,77.40
2022-08-03T00:11:36.966Z,77.57
2022-08-03T00:12:42.768Z,77.64
2022-08-03T00:13:45.514Z,77.68
2022-08-03T00:15:22.568Z,77.58
2022-08-03T00:16:28.728Z,77.65
2022-08-03T00:17:31.480Z,77.63
2022-08-03T00:19:27.680Z,77.85
2022-08-03T00:20:30.402Z,77.99
2022-08-03T00:21:33.262Z,78.06
2022-08-03T00:23:10.028Z,78.07
2022-08-03T00:24:37.080Z,78.20
2022-08-03T00:25:39.988Z,78.35
2022-08-03T00:27:16.620Z,78.31
2022-08-03T00:28:24.216Z,78.29
2022-08-03T00:29:29.763Z,78.14
2022-08-03T00:32:00.145Z,78.16
2022-08-03T00:33:13.868Z,78.17
2022-08-03T00:35:09.237Z,78.19
2022-08-03T00:37:14.637Z,78.39
2022-08-03T00:38:38.237Z,78.35
2022-08-03T00:39:41.244Z,78.44
2022-08-03T00:41:21.388Z,78.59
2022-08-03T00:42:24.578Z,78.52
2022-08-03T00:43:31.373Z,78.58
2022-08-03T00:45:05.842Z,78.71
2022-08-03T00:46:08.463Z,78.68
2022-08-03T00:47:18.315Z,78.68
2022-08-03T00:49:15.757Z,78.71
2022-08-03T00:50:18.940Z,78.78
2022-08-03T00:51:21.655Z,78.89
2022-08-03T00:53:01.529Z,79.14
2022-08-03T00:54:04.521Z,79.15
2022-08-03T00:55:07.385Z,79.17
2022-08-03T00:56:41.775Z,79.21
2022-08-03T00:58:03.015Z,79.27
2022-08-03T00:59:05.716Z,79.33
2022-08-03T01:00:17.230Z,79.42
2022-08-03T01:01:20.162Z,79.42
2022-08-03T01:02:29.816Z,79.52
2022-08-03T01:04:04.323Z,79.75
2022-08-03T01:05:07.316Z,79.74
2022-08-03T01:06:09.999Z,79.86
2022-08-03T01:07:44.456Z,79.87
2022-08-03T01:08:47.171Z,79.93
2022-08-03T01:09:49.873Z,79.99
2022-08-03T01:11:24.633Z,80.13
2022-08-03T01:12:51.913Z,80.06
2022-08-03T01:14:59.896Z,79.94
2022-08-03T01:16:42.850Z,80.12
2022-08-03T01:17:47.312Z,80.18
2022-08-03T01:18:50.018Z,80.24
2022-08-03T01:20:24.626Z,80.29
2022-08-03T01:21:27.370Z,80.33
2022-08-03T01:22:32.723Z,80.48
2022-08-03T01:24:09.555Z,80.45
2022-08-03T01:25:12.143Z,80.58
2022-08-03T01:26:14.934Z,80.61
2022-08-03T01:27:49.495Z,80.67
2022-08-03T01:28:52.215Z,80.74
2022-08-03T01:29:54.945Z,80.76
2022-08-03T01:31:29.396Z,80.82
2022-08-03T01:33:54.181Z,80.90
2022-08-03T01:35:00.897Z,80.80
2022-08-03T01:36:37.618Z,80.80
2022-08-03T01:37:44.359Z,80.90
2022-08-03T01:38:47.672Z,81.01
2022-08-03T01:40:22.302Z,81.05
2022-08-03T01:41:25.010Z,81.11
2022-08-03T01:42:27.845Z,81.07
2022-08-03T01:45:16.393Z,81.12
2022-08-03T01:46:20.297Z,81.11
2022-08-03T01:47:29.538Z,81.14
2022-08-03T01:49:09.404Z,81.12
2022-08-03T01:50:12.810Z,81.12
2022-08-03T01:51:15.592Z,80.97
2022-08-03T01:53:28.618Z,80.87
2022-08-03T01:54:31.394Z,80.89
2022-08-03T01:55:34.091Z,81.05
2022-08-03T01:57:08.539Z,81.07
2022-08-03T01:58:12.564Z,81.11
2022-08-03T01:59:15.259Z,81.34
2022-08-03T02:00:17.774Z,81.37
2022-08-03T02:01:22.896Z,81.53
2022-08-03T02:03:31.629Z,81.59
2022-08-03T02:05:24.394Z,81.70
2022-08-03T02:07:08.026Z,81.82
2022-08-03T02:08:10.656Z,81.89
2022-08-03T02:09:45.436Z,82.10
2022-08-03T02:10:48.115Z,82.08
2022-08-03T02:11:50.987Z,82.20
2022-08-03T02:13:26.527Z,82.25
2022-08-03T02:14:29.301Z,82.20
2022-08-03T02:15:32.014Z,82.18
2022-08-03T02:17:06.413Z,82.22
2022-08-03T02:18:25.876Z,82.25
2022-08-03T02:19:32.581Z,82.29
2022-08-03T02:21:55.875Z,82.34
2022-08-03T02:23:03.785Z,82.37
2022-08-03T02:24:06.394Z,82.44
2022-08-03T02:25:42.912Z,82.52
2022-08-03T02:26:48.114Z,82.50
2022-08-03T02:27:50.854Z,82.45
2022-08-03T02:29:45.990Z,82.55
2022-08-03T02:30:51.866Z,82.69
2022-08-03T02:31:56.787Z,82.64
2022-08-03T02:33:32.115Z,82.92
2022-08-03T02:34:34.726Z,83.07
2022-08-03T02:35:37.386Z,83.15
2022-08-03T02:37:11.953Z,83.19
2022-08-03T02:38:14.574Z,83.19
2022-08-03T02:39:17.407Z,83.23
2022-08-03T02:40:51.874Z,83.31
2022-08-03T02:41:56.523Z,83.58
2022-08-03T02:43:02.649Z,83.54
2022-08-03T02:44:58.809Z,83.58
2022-08-03T02:46:03.895Z,83.63
2022-08-03T02:47:08.475Z,83.65
2022-08-03T02:49:56.852Z,83.71
2022-08-03T02:50:59.800Z,83.83
2022-08-03T02:52:02.511Z,83.99
2022-08-03T02:53:42.342Z,84.12
2022-08-03T02:54:45.241Z,84.03
2022-08-03T02:55:51.590Z,83.95
2022-08-03T02:57:26.060Z,83.97
2022-08-03T02:58:28.805Z,84.00
2022-08-03T02:59:31.602Z,84.00
2022-08-03T03:00:19.936Z,84.01
2022-08-03T03:01:31.214Z,84.03
2022-08-03T03:02:34.141Z,84.11
2022-08-03T03:04:32.929Z,84.07
2022-08-03T03:06:53.885Z,84.28
2022-08-03T03:08:01.754Z,84.35
2022-08-03T03:09:54.346Z,84.50
2022-08-03T03:11:01.336Z,84.59
2022-08-03T03:12:04.053Z,84.68
2022-08-03T03:13:38.889Z,84.76
2022-08-03T03:14:41.557Z,84.81
2022-08-03T03:15:44.502Z,84.95
2022-08-03T03:17:18.974Z,84.98
2022-08-03T03:18:28.131Z,84.99
2022-08-03T03:19:30.703Z,85.04
2022-08-03T03:21:16.384Z,85.15
2022-08-03T03:22:21.500Z,85.12
2022-08-03T03:23:25.958Z,85.23
2022-08-03T03:25:03.864Z,85.19
2022-08-03T03:26:06.482Z,85.17
2022-08-03T03:27:09.153Z,85.18
2022-08-03T03:28:52.302Z,85.22
2022-08-03T03:29:54.970Z,85.42
2022-08-03T03:30:58.827Z,85.58
2022-08-03T03:32:33.302Z,85.60
2022-08-03T03:33:38.571Z,85.60
2022-08-03T03:34:41.295Z,85.66
2022-08-03T03:36:25.332Z,85.72
2022-08-03T03:37:28.036Z,85.69
2022-08-03T03:38:30.787Z,85.71
2022-08-03T03:40:07.855Z,85.53
2022-08-03T03:41:10.704Z,85.54
2022-08-03T03:42:20.189Z,85.54
2022-08-03T03:43:55.046Z,85.57
2022-08-03T03:44:57.693Z,85.68
2022-08-03T03:46:02.188Z,85.59
2022-08-03T03:47:38.461Z,85.58
2022-08-03T03:48:41.285Z,85.54
2022-08-03T03:49:44.367Z,85.52
2022-08-03T03:51:21.437Z,85.50
2022-08-03T03:52:24.044Z,85.77
2022-08-03T03:53:26.812Z,85.81
2022-08-03T03:55:06.788Z,85.84
2022-08-03T03:56:09.551Z,85.89
2022-08-03T03:57:13.149Z,85.91
2022-08-03T03:58:48.484Z,86.06
2022-08-03T03:59:51.114Z,86.18
2022-08-03T04:00:18.161Z,86.18
2022-08-03T04:01:21.466Z,86.29
2022-08-03T04:02:24.152Z,86.34
2022-08-03T04:03:59.867Z,86.55
2022-08-03T04:05:51.657Z,86.51
2022-08-03T04:06:54.878Z,86.72
2022-08-03T04:07:57.806Z,86.74
2022-08-03T04:09:35.716Z,86.80
2022-08-03T04:10:49.258Z,86.84
2022-08-03T04:11:52.034Z,86.89
2022-08-03T04:13:36.881Z,86.94
2022-08-03T04:14:42.597Z,86.95
2022-08-03T04:15:45.413Z,86.92
2022-08-03T04:17:24.145Z,86.89
2022-08-03T04:18:27.148Z,86.91
2022-08-03T04:19:32.557Z,86.95
2022-08-03T04:21:07.248Z,86.99
2022-08-03T04:22:10.102Z,87.00
2022-08-03T04:23:21.140Z,86.95
2022-08-03T04:24:55.834Z,87.06
2022-08-03T04:25:58.752Z,87.08
2022-08-03T04:27:01.419Z,87.08
2022-08-03T04:29:17.741Z,87.33
2022-08-03T04:30:28.895Z,87.48
2022-08-03T04:31:31.703Z,87.57
2022-08-03T04:33:07.499Z,87.60
2022-08-03T04:34:16.856Z,87.64
2022-08-03T04:35:19.640Z,87.65
2022-08-03T04:37:30.380Z,87.66
2022-08-03T04:38:33.101Z,87.67
2022-08-03T04:39:36.029Z,87.59
2022-08-03T04:41:18.064Z,87.58
2022-08-03T04:42:54.420Z,87.64
2022-08-03T04:43:57.189Z,87.60
2022-08-03T04:45:31.595Z,87.74
2022-08-03T04:46:34.266Z,87.76
2022-08-03T04:47:44.372Z,87.75
2022-08-03T04:49:25.319Z,87.77
2022-08-03T04:50:28.332Z,87.76
2022-08-03T04:51:31.039Z,87.70
2022-08-03T04:53:07.514Z,87.67
2022-08-03T04:54:11.269Z,87.68
2022-08-03T04:55:14.004Z,87.63
2022-08-03T04:56:52.873Z,87.60
2022-08-03T04:58:03.906Z,87.53
2022-08-03T04:59:06.603Z,87.44
2022-08-03T05:00:17.681Z,87.42
2022-08-03T05:01:20.584Z,87.37
2022-08-03T05:02:24.593Z,87.33
2022-08-03T05:04:15.355Z,87.30
2022-08-03T05:05:18.294Z,87.27
2022-08-03T05:07:00.851Z,87.17
2022-08-03T05:09:09.779Z,87.18
2022-08-03T05:10:59.413Z,87.19
2022-08-03T05:12:02.356Z,87.17
2022-08-03T05:13:43.027Z,87.14
2022-08-03T05:14:45.837Z,87.13
2022-08-03T05:15:49.017Z,87.12
2022-08-03T05:17:23.634Z,87.12
2022-08-03T05:18:26.573Z,87.17
2022-08-03T05:19:29.361Z,87.14
2022-08-03T05:21:05.072Z,86.94
2022-08-03T05:22:33.403Z,87.01
2022-08-03T05:23:36.078Z,87.00
2022-08-03T05:25:17.367Z,87.08
2022-08-03T05:26:32.366Z,86.94
2022-08-03T05:27:35.125Z,86.98
2022-08-03T05:29:09.800Z,86.97
2022-08-03T05:30:38.703Z,86.84
2022-08-03T05:31:41.428Z,86.82
2022-08-03T05:33:20.248Z,86.66
2022-08-03T05:34:23.097Z,86.59
2022-08-03T05:36:09.423Z,86.59
2022-08-03T05:38:00.183Z,86.65
2022-08-03T05:39:15.998Z,86.62
2022-08-03T05:40:18.863Z,86.59
2022-08-03T05:42:23.828Z,86.80
2022-08-03T05:43:26.831Z,86.69
2022-08-03T05:44:29.451Z,86.64
2022-08-03T05:46:18.711Z,86.43
2022-08-03T05:47:21.460Z,86.37
2022-08-03T05:48:24.080Z,86.18
2022-08-03T05:49:59.621Z,85.88
2022-08-03T05:51:02.394Z,85.73
2022-08-03T05:52:18.009Z,85.62
2022-08-03T05:53:55.818Z,85.40
2022-08-03T05:55:03.124Z,85.25
2022-08-03T05:56:20.378Z,84.93
2022-08-03T05:57:56.819Z,84.75
2022-08-03T05:59:22.453Z,84.34
2022-08-03T06:00:21.246Z,84.31
2022-08-03T06:01:25.019Z,84.06
2022-08-03T06:02:28.164Z,83.28
2022-08-03T06:04:07.382Z,83.20
2022-08-03T06:05:10.221Z,82.63
2022-08-03T06:06:13.226Z,82.52
2022-08-03T06:07:50.338Z,81.83
2022-08-03T06:08:56.054Z,81.68
2022-08-03T06:10:43.662Z,81.89
2022-08-03T06:12:20.399Z,80.75
2022-08-03T06:13:23.202Z,80.62
2022-08-03T06:14:25.910Z,80.67
2022-08-03T06:16:03.495Z,80.21
2022-08-03T06:17:07.406Z,80.64
2022-08-03T06:18:18.222Z,80.82
2022-08-03T06:19:53.426Z,79.48
2022-08-03T06:20:57.993Z,80.02
2022-08-03T06:22:21.922Z,79.18
2022-08-03T06:24:53.551Z,79.13
2022-08-03T06:26:07.433Z,78.69
2022-08-03T06:27:10.847Z,78.75
2022-08-03T06:29:39.830Z,78.66
2022-08-03T06:30:43.615Z,78.65
2022-08-03T06:31:47.219Z,78.14
2022-08-03T06:34:37.284Z,78.38
2022-08-03T06:35:41.628Z,78.25
2022-08-03T06:36:47.512Z,78.17
2022-08-03T06:38:26.093Z,77.12
2022-08-03T06:39:29.624Z,77.61
2022-08-03T06:40:32.838Z,77.54
2022-08-03T06:42:08.739Z,77.04
2022-08-03T06:43:18.488Z,77.04
2022-08-03T06:44:50.742Z,77.42
2022-08-03T06:46:28.567Z,76.77
2022-08-03T06:47:31.179Z,76.06
2022-08-03T06:48:36.315Z,75.96
2022-08-03T06:50:26.188Z,75.27
2022-08-03T06:52:12.115Z,74.91
2022-08-03T06:53:41.156Z,74.07
2022-08-03T06:55:19.293Z,74.15
2022-08-03T06:56:34.773Z,73.56
2022-08-03T06:57:37.633Z,74.36
2022-08-03T07:00:18.494Z,73.73
2022-08-03T07:01:24.525Z,73.57
2022-08-03T07:02:28.354Z,74.12
2022-08-03T07:04:09.829Z,74.10
2022-08-03T07:05:12.651Z,73.95
2022-08-03T07:06:15.464Z,74.08
2022-08-03T07:07:50.395Z,73.66
2022-08-03T07:08:59.646Z,72.14
2022-08-03T07:10:04.084Z,72.08
2022-08-03T07:11:38.949Z,71.67
2022-08-03T07:12:55.801Z,71.65
2022-08-03T07:13:59.590Z,71.80
2022-08-03T07:16:02.061Z,72.52
2022-08-03T07:17:11.643Z,72.25
2022-08-03T07:18:14.955Z,71.73
2022-08-03T07:19:59.019Z,72.00
2022-08-03T07:21:01.743Z,71.33
2022-08-03T07:22:09.840Z,71.84
2022-08-03T07:23:44.544Z,71.39
2022-08-03T07:24:47.192Z,71.07
2022-08-03T07:25:51.659Z,71.08
2022-08-03T07:27:28.929Z,71.71
2022-08-03T07:28:38.617Z,71.97
2022-08-03T07:29:41.366Z,71.72
2022-08-03T07:31:15.782Z,71.83
2022-08-03T07:32:25.728Z,69.08
2022-08-03T07:33:42.193Z,70.21
2022-08-03T07:35:31.118Z,69.34
2022-08-03T07:36:34.466Z,69.87
2022-08-03T07:37:37.131Z,69.19
2022-08-03T07:39:23.888Z,68.79
2022-08-03T07:40:31.661Z,69.15
2022-08-03T07:41:38.139Z,69.05
2022-08-03T07:43:15.967Z,68.87
2022-08-03T07:44:18.903Z,68.48
2022-08-03T07:45:22.531Z,69.04
2022-08-03T07:46:57.626Z,68.42
2022-08-03T07:48:18.393Z,69.86
2022-08-03T07:49:21.278Z,69.22
2022-08-03T07:50:56.245Z,67.87
2022-08-03T07:51:58.975Z,68.61
2022-08-03T07:53:08.952Z,68.26
2022-08-03T07:54:45.233Z,67.99
2022-08-03T07:55:47.918Z,67.69
2022-08-03T07:56:57.628Z,67.47
2022-08-03T07:58:32.097Z,67.54
2022-08-03T08:00:17.497Z,67.44
2022-08-03T08:01:20.928Z,67.18
2022-08-03T08:02:24.551Z,66.51
2022-08-03T08:03:59.454Z,66.64
2022-08-03T08:05:05.472Z,67.62
2022-08-03T08:06:08.773Z,67.17
2022-08-03T08:07:44.329Z,66.38
2022-08-03T08:08:53.746Z,66.19
2022-08-03T08:09:56.478Z,64.91
2022-08-03T08:11:45.810Z,65.58
2022-08-03T08:12:56.174Z,64.18
2022-08-03T08:13:58.888Z,65.05
2022-08-03T08:15:33.317Z,64.48
2022-08-03T08:16:42.075Z,63.43
2022-08-03T08:17:47.926Z,63.78
2022-08-03T08:19:24.673Z,64.11
2022-08-03T08:20:43.847Z,63.40
2022-08-03T08:22:05.378Z,64.81
2022-08-03T08:24:37.545Z,62.57
2022-08-03T08:25:43.996Z,62.73
2022-08-03T08:26:46.736Z,62.31
2022-08-03T08:29:24.679Z,61.56
2022-08-03T08:30:51.996Z,62.30
2022-08-03T08:31:55.473Z,61.11
2022-08-03T08:34:01.054Z,62.22
2022-08-03T08:35:05.674Z,60.68
2022-08-03T08:36:12.004Z,60.75
2022-08-03T08:37:56.944Z,60.53
2022-08-03T08:39:03.005Z,60.31
2022-08-03T08:40:09.029Z,61.23
2022-08-03T08:41:53.270Z,59.41
2022-08-03T08:43:04.718Z,59.84
2022-08-03T08:44:07.430Z,58.57
2022-08-03T08:45:41.978Z,60.15
2022-08-03T08:46:44.623Z,59.57
2022-08-03T08:48:00.997Z,59.23
2022-08-03T08:49:38.642Z,59.96
2022-08-03T08:51:19.662Z,59.50
2022-08-03T08:53:27.213Z,58.77
2022-08-03T08:55:02.473Z,57.50
2022-08-03T08:56:06.633Z,57.74
2022-08-03T08:59:15.782Z,58.84
2022-08-03T09:00:18.041Z,57.90
2022-08-03T09:01:20.967Z,56.33
2022-08-03T09:02:25.536Z,56.97
2022-08-03T09:04:15.523Z,57.02
2022-08-03T09:05:18.410Z,57.57
2022-08-03T09:07:23.530Z,55.13
2022-08-03T09:08:58.213Z,55.69
2022-08-03T09:10:59.335Z,55.63
2022-08-03T09:12:48.112Z,55.35
2022-08-03T09:15:00.864Z,55.16
2022-08-03T09:16:17.778Z,53.64
2022-08-03T09:17:23.262Z,53.53
2022-08-03T09:19:03.251Z,56.27
2022-08-03T09:20:09.466Z,55.03
2022-08-03T09:21:36.099Z,57.21
2022-08-03T09:24:01.642Z,53.36
2022-08-03T09:26:05.924Z,53.39
2022-08-03T09:27:08.587Z,53.84
2022-08-03T09:29:13.295Z,52.93
2022-08-03T09:30:40.455Z,51.70
2022-08-03T09:31:44.062Z,53.24
2022-08-03T09:33:20.823Z,52.66
2022-08-03T09:34:33.248Z,52.32
2022-08-03T09:35:59.931Z,52.67
2022-08-03T09:38:19.950Z,52.47
2022-08-03T09:39:40.259Z,49.27
2022-08-03T09:40:44.795Z,49.57
2022-08-03T09:42:24.408Z,49.18
2022-08-03T09:43:27.036Z,50.62
2022-08-03T09:44:31.797Z,50.97
2022-08-03T09:46:06.456Z,49.54
2022-08-03T09:47:09.236Z,50.51
2022-08-03T09:48:14.475Z,50.05
2022-08-03T09:49:57.497Z,50.20
2022-08-03T09:52:28.790Z,50.91
2022-08-03T09:54:06.480Z,49.52
2022-08-03T09:57:16.220Z,47.84
2022-08-03T09:58:19.176Z,47.97
2022-08-03T09:59:21.839Z,47.14
2022-08-03T10:00:17.510Z,46.94
2022-08-03T10:01:31.273Z,47.19
2022-08-03T10:02:34.548Z,47.70
2022-08-03T10:04:10.938Z,47.79
2022-08-03T10:05:19.427Z,47.92
2022-08-03T10:06:23.001Z,47.52
2022-08-03T10:08:03.715Z,46.18
2022-08-03T10:09:06.505Z,47.17
2022-08-03T10:10:37.696Z,47.34
2022-08-03T10:12:22.742Z,46.40
2022-08-03T10:13:26.867Z,46.34
2022-08-03T10:14:29.786Z,45.88
2022-08-03T10:17:17.140Z,46.88
2022-08-03T10:18:26.156Z,46.77
2022-08-03T10:19:28.878Z,45.55
2022-08-03T10:21:03.470Z,45.99
2022-08-03T10:22:06.222Z,46.11
2022-08-03T10:23:08.970Z,46.88
2022-08-03T10:24:46.345Z,46.97
2022-08-03T10:25:48.918Z,46.97
2022-08-03T10:26:55.889Z,46.74
2022-08-03T10:28:31.123Z,46.65
2022-08-03T10:29:38.766Z,45.82
2022-08-03T10:30:41.704Z,46.40
2022-08-03T10:32:35.151Z,46.41
2022-08-03T10:33:58.231Z,48.22
2022-08-03T10:35:19.913Z,47.41
2022-08-03T10:36:55.385Z,46.27
2022-08-03T10:38:02.948Z,45.97
2022-08-03T10:39:15.979Z,45.77
2022-08-03T10:41:13.665Z,45.50
2022-08-03T10:42:20.573Z,45.80
2022-08-03T10:43:26.380Z,45.13
2022-08-03T10:45:01.482Z,47.10
2022-08-03T10:46:04.243Z,45.47
2022-08-03T10:47:07.046Z,45.20
2022-08-03T10:48:42.331Z,44.74
2022-08-03T10:49:45.609Z,44.70
2022-08-03T10:50:49.434Z,44.82
2022-08-03T10:52:42.869Z,44.53
2022-08-03T10:54:01.889Z,44.61
2022-08-03T10:55:15.711Z,44.61
2022-08-03T10:57:13.433Z,44.32
2022-08-03T10:58:36.273Z,43.65
2022-08-03T11:00:18.229Z,42.66
2022-08-03T11:01:21.583Z,43.18
2022-08-03T11:02:55.698Z,44.34
2022-08-03T11:04:30.794Z,44.37
2022-08-03T11:05:34.248Z,44.68
2022-08-03T11:06:43.377Z,44.91
2022-08-03T11:08:18.102Z,43.06
2022-08-03T11:09:20.996Z,43.01
2022-08-03T11:10:24.096Z,43.99
2022-08-03T11:11:59.009Z,42.33
2022-08-03T11:13:10.486Z,43.40
2022-08-03T11:14:15.880Z,43.00
2022-08-03T11:15:51.064Z,43.49
2022-08-03T11:17:14.156Z,43.00
2022-08-03T11:18:36.221Z,42.50
2022-08-03T11:20:37.523Z,42.59
2022-08-03T11:21:40.111Z,42.47
2022-08-03T11:22:42.989Z,43.68
2022-08-03T11:24:57.844Z,42.69
2022-08-03T11:26:46.162Z,43.47
2022-08-03T11:27:51.994Z,43.85
2022-08-03T11:29:27.190Z,42.46
2022-08-03T11:30:33.415Z,41.87
2022-08-03T11:31:56.117Z,42.31
2022-08-03T11:33:39.825Z,43.98
2022-08-03T11:34:44.297Z,43.39
2022-08-03T11:35:47.093Z,43.36
2022-08-03T11:37:29.987Z,41.94
2022-08-03T11:38:58.485Z,42.79
2022-08-03T11:40:03.174Z,41.18
2022-08-03T11:41:48.447Z,42.74
2022-08-03T11:42:51.301Z,41.91
2022-08-03T11:43:54.123Z,42.74
2022-08-03T11:45:33.715Z,42.55
2022-08-03T11:46:36.405Z,42.17
2022-08-03T11:47:50.214Z,41.98
2022-08-03T11:49:26.307Z,41.26
2022-08-03T11:50:29.753Z,41.71
2022-08-03T11:51:32.631Z,41.12
2022-08-03T11:53:14.613Z,41.16
2022-08-03T11:54:22.717Z,40.79
2022-08-03T11:55:29.031Z,41.45
2022-08-03T11:57:05.200Z,42.91
2022-08-03T12:00:17.859Z,42.67
2022-08-03T12:01:28.500Z,42.60
2022-08-03T12:02:31.211Z,41.60
2022-08-03T12:04:07.689Z,42.15
2022-08-03T12:05:10.693Z,43.30
2022-08-03T12:06:13.242Z,42.95
2022-08-03T12:08:11.849Z,42.24
2022-08-03T12:09:21.439Z,42.12
2022-08-03T12:10:24.260Z,41.91
2022-08-03T12:12:06.694Z,41.79
2022-08-03T12:14:55.213Z,42.13
2022-08-03T12:16:00.202Z,40.10
2022-08-03T12:17:34.736Z,41.68
2022-08-03T12:18:43.362Z,41.30
2022-08-03T12:19:45.964Z,40.10
2022-08-03T12:21:27.042Z,40.20
2022-08-03T12:22:42.931Z,41.05
2022-08-03T12:23:45.683Z,40.85
2022-08-03T12:25:20.380Z,39.40
2022-08-03T12:26:43.066Z,40.05
2022-08-03T12:27:57.272Z,38.44
2022-08-03T12:30:07.589Z,39.10
2022-08-03T12:31:10.961Z,38.00
2022-08-03T12:32:13.719Z,39.90
2022-08-03T12:33:48.749Z,38.96
2022-08-03T12:34:53.247Z,37.72
2022-08-03T12:36:00.146Z,38.61
2022-08-03T12:37:36.763Z,38.72
2022-08-03T12:38:45.251Z,39.53
2022-08-03T12:40:10.948Z,38.88
2022-08-03T12:41:52.882Z,38.18
2022-08-03T12:42:56.971Z,38.40
2022-08-03T12:44:00.147Z,39.93
2022-08-03T12:45:42.410Z,39.91
2022-08-03T12:46:52.788Z,41.04
2022-08-03T12:47:56.643Z,39.23
2022-08-03T12:49:36.327Z,38.69
2022-08-03T12:50:41.667Z,39.26
2022-08-03T12:51:50.819Z,39.37
2022-08-03T12:53:30.876Z,37.75
2022-08-03T12:54:33.527Z,38.05
2022-08-03T12:56:05.635Z,38.42
2022-08-03T12:57:40.649Z,38.43
2022-08-03T12:58:43.468Z,38.03
2022-08-03T12:59:53.533Z,38.05
2022-08-03T13:00:34.838Z,38.97
2022-08-03T13:02:01.290Z,39.03
2022-08-03T13:03:49.640Z,37.46
2022-08-03T13:05:30.299Z,37.84
2022-08-03T13:06:33.043Z,37.96
2022-08-03T13:07:54.969Z,37.93
2022-08-03T13:09:29.627Z,37.46
2022-08-03T13:10:32.591Z,37.38
2022-08-03T13:12:03.675Z,37.97
2022-08-03T13:13:38.761Z,38.81
2022-08-03T13:14:41.626Z,36.80
2022-08-03T13:15:53.935Z,36.72
2022-08-03T13:17:32.312Z,36.63
2022-08-03T13:18:36.116Z,36.07
2022-08-03T13:19:39.653Z,36.16
2022-08-03T13:21:18.188Z,35.82
2022-08-03T13:22:45.265Z,35.94
2022-08-03T13:24:03.203Z,36.34
2022-08-03T13:25:37.735Z,35.49
2022-08-03T13:26:58.232Z,36.26
2022-08-03T13:29:06.570Z,37.92
2022-08-03T13:30:41.792Z,35.66
2022-08-03T13:31:56.649Z,36.06
2022-08-03T13:32:59.269Z,36.14
2022-08-03T13:34:33.918Z,36.36
2022-08-03T13:35:36.613Z,35.79
2022-08-03T13:37:13.339Z,36.17
2022-08-03T13:38:51.093Z,35.68
2022-08-03T13:40:06.132Z,35.89
2022-08-03T13:41:37.075Z,36.04
2022-08-03T13:43:11.505Z,36.40
2022-08-03T13:44:35.507Z,36.01
2022-08-03T13:45:38.516Z,35.41
2022-08-03T13:47:21.689Z,35.83
2022-08-03T13:48:43.317Z,37.14
2022-08-03T13:49:54.210Z,35.89
2022-08-03T13:51:36.642Z,35.07
2022-08-03T13:52:39.402Z,34.58
2022-08-03T13:53:42.156Z,35.54
2022-08-03T13:55:16.706Z,35.04
2022-08-03T13:56:19.449Z,35.16
2022-08-03T13:58:12.944Z,35.70
2022-08-03T13:59:47.741Z,36.10
2022-08-03T14:00:28.072Z,36.09
2022-08-03T14:02:01.255Z,36.75
2022-08-03T14:03:13.886Z,37.26
2022-08-03T14:05:02.788Z,37.25
2022-08-03T14:06:05.711Z,36.77
2022-08-03T14:07:08.394Z,37.32
2022-08-03T14:08:50.636Z,36.77
2022-08-03T14:09:57.901Z,37.04
2022-08-03T14:11:00.594Z,37.37
2022-08-03T14:13:23.849Z,35.95
2022-08-03T14:14:26.613Z,37.06
2022-08-03T14:15:29.435Z,37.54
2022-08-03T14:17:17.967Z,37.26
2022-08-03T14:18:47.017Z,38.02
2022-08-03T14:19:59.660Z,36.94
2022-08-03T14:22:33.070Z,38.12
2022-08-03T14:23:36.133Z,37.59
2022-08-03T14:24:40.647Z,37.50
2022-08-03T14:26:33.192Z,37.56
2022-08-03T14:27:46.216Z,37.35
2022-08-03T14:28:48.850Z,37.13
2022-08-03T14:30:23.258Z,37.11
2022-08-03T14:32:18.585Z,37.14
2022-08-03T14:33:21.303Z,39.40
2022-08-03T14:34:55.688Z,38.57
2022-08-03T14:35:58.316Z,38.66
2022-08-03T14:37:00.944Z,39.12
2022-08-03T14:38:35.808Z,39.32
2022-08-03T14:40:07.007Z,39.52
2022-08-03T14:41:12.121Z,39.66
2022-08-03T14:42:54.134Z,40.79
2022-08-03T14:44:07.961Z,40.34
2022-08-03T14:45:25.854Z,39.59
2022-08-03T14:47:00.507Z,40.54
2022-08-03T14:50:44.412Z,40.14
2022-08-03T14:51:58.940Z,40.72
2022-08-03T14:53:33.334Z,39.95
2022-08-03T14:54:36.006Z,39.60
2022-08-03T14:55:55.117Z,40.74
2022-08-03T14:57:33.917Z,40.49
2022-08-03T14:58:36.598Z,40.86
2022-08-03T15:00:17.767Z,39.74
2022-08-03T15:02:23.436Z,39.74
2022-08-03T15:03:27.105Z,39.90
2022-08-03T15:05:01.617Z,41.25
2022-08-03T15:06:04.411Z,40.54
2022-08-03T15:07:07.102Z,40.45
2022-08-03T15:09:00.502Z,40.52
2022-08-03T15:10:30.691Z,39.81
2022-08-03T15:11:50.788Z,40.10
2022-08-03T15:13:26.642Z,39.89
2022-08-03T15:14:38.059Z,40.23
2022-08-03T15:15:41.195Z,40.02
2022-08-03T15:17:21.847Z,40.46
2022-08-03T15:18:41.239Z,40.51
2022-08-03T15:20:51.483Z,40.35
2022-08-03T15:23:15.880Z,40.67
2022-08-03T15:24:18.656Z,40.33
2022-08-03T15:26:41.635Z,40.74
2022-08-03T15:28:44.692Z,41.22
2022-08-03T15:30:15.842Z,41.22
2022-08-03T15:31:24.599Z,40.69
2022-08-03T15:33:01.387Z,41.41
2022-08-03T15:34:04.011Z,41.49
2022-08-03T15:35:06.739Z,41.74
2022-08-03T15:36:41.264Z,41.78
2022-08-03T15:37:53.342Z,41.72
2022-08-03T15:39:01.367Z,41.77
2022-08-03T15:40:52.081Z,42.61
2022-08-03T15:41:59.744Z,41.87
2022-08-03T15:43:05.218Z,42.06
2022-08-03T15:44:39.982Z,42.00
2022-08-03T15:45:42.880Z,42.40
2022-08-03T15:47:21.219Z,42.73
2022-08-03T15:48:55.902Z,42.48
2022-08-03T15:49:58.605Z,42.60
2022-08-03T15:51:06.848Z,42.60
2022-08-03T15:52:41.788Z,42.49
2022-08-03T15:53:44.401Z,42.78
2022-08-03T15:54:47.271Z,42.25
2022-08-03T15:56:28.236Z,42.93
2022-08-03T15:57:30.954Z,42.10
2022-08-03T16:00:17.379Z,42.68
2022-08-03T16:01:31.334Z,43.51
2022-08-03T16:02:34.484Z,43.75
2022-08-03T16:04:19.212Z,43.30
2022-08-03T16:05:46.958Z,42.58
2022-08-03T16:06:49.793Z,42.51
2022-08-03T16:08:13.666Z,42.53
2022-08-03T16:10:24.060Z,42.63
2022-08-03T16:11:28.883Z,42.73
2022-08-03T16:12:31.573Z,42.99
2022-08-03T16:15:13.875Z,43.37
2022-08-03T16:16:19.215Z,43.72
2022-08-03T16:17:22.401Z,43.88
2022-08-03T16:18:57.201Z,43.58
2022-08-03T16:20:08.823Z,43.75
2022-08-03T16:21:47.302Z,43.48
2022-08-03T16:23:35.188Z,44.01
2022-08-03T16:24:46.774Z,43.18
2022-08-03T16:25:55.089Z,44.01
2022-08-03T16:28:14.486Z,43.99
2022-08-03T16:29:29.499Z,43.84
2022-08-03T16:30:32.287Z,43.65
2022-08-03T16:32:12.987Z,43.87
2022-08-03T16:33:17.395Z,44.50
2022-08-03T16:34:20.664Z,44.43
2022-08-03T16:36:05.986Z,44.24
2022-08-03T16:37:50.773Z,44.22
2022-08-03T16:39:10.936Z,43.94
2022-08-03T16:40:45.999Z,44.30
2022-08-03T16:42:06.417Z,44.40
2022-08-03T16:43:09.027Z,44.82
2022-08-03T16:44:58.175Z,44.78
2022-08-03T16:46:00.877Z,44.22
2022-08-03T16:47:03.691Z,44.59
2022-08-03T16:48:57.282Z,43.90
2022-08-03T16:50:41.781Z,43.10
2022-08-03T16:51:56.192Z,44.91
2022-08-03T16:54:14.075Z,43.44
2022-08-03T16:55:42.914Z,44.50
2022-08-03T16:56:59.004Z,43.98
2022-08-03T16:59:42.444Z,44.57
2022-08-03T17:00:41.311Z,44.57
2022-08-03T17:02:18.223Z,45.77
2022-08-03T17:03:30.034Z,46.25
2022-08-03T17:05:53.167Z,45.30
2022-08-03T17:07:18.412Z,45.77
2022-08-03T17:08:32.951Z,45.80
2022-08-03T17:10:39.053Z,45.11
2022-08-03T17:11:46.422Z,45.71
2022-08-03T17:12:53.191Z,46.83
2022-08-03T17:14:38.723Z,45.20
2022-08-03T17:16:04.083Z,45.61
2022-08-03T17:17:16.051Z,45.37
2022-08-03T17:19:16.112Z,46.39
2022-08-03T17:20:35.743Z,46.24
2022-08-03T17:21:44.739Z,46.03
2022-08-03T17:23:41.200Z,46.36
2022-08-03T17:24:47.888Z,46.84
2022-08-03T17:26:30.635Z,46.61
2022-08-03T17:29:53.566Z,47.71
2022-08-03T17:31:00.759Z,47.19
2022-08-03T17:32:57.017Z,47.15
2022-08-03T17:35:20.911Z,46.65
2022-08-03T17:37:27.127Z,47.25
2022-08-03T17:39:14.563Z,47.19
2022-08-03T17:41:39.123Z,47.13
2022-08-03T17:44:31.124Z,47.29
2022-08-03T17:45:58.637Z,47.24
2022-08-03T17:47:57.094Z,47.20
2022-08-03T17:49:31.130Z,46.95
2022-08-03T17:50:37.468Z,47.31
2022-08-03T17:52:27.746Z,48.11
2022-08-03T17:53:41.352Z,47.68
2022-08-03T17:56:07.725Z,48.38
2022-08-03T17:59:17.425Z,48.08